sensor_id;sensor_type;location;lat;lon;timestamp;P1;durP1;ratioP1;P2;durP2;ratioP2
82797;SDS011;72540;62.834;27.606;2024-02-28T00:00:25;1.10;;;0.30;;
82797;SDS011;72540;62.834;27.606;2024-02-28T00:02:51;0.47;;;0.20;;
82797;SDS011;72540;62.834;27.606;2024-02-28T00:05:16;1.50;;;0.35;;
82797;SDS011;72540;62.834;27.606;2024-02-28T00:07:42;1.90;;;0.60;;
82797;SDS011;72540;62.834;27.606;2024-02-28T00:10:09;0.85;;;0.40;;
82797;SDS011;72540;62.834;27.606;2024-02-28T00:12:34;1.00;;;0.45;;
82797;SDS011;72540;62.834;27.606;2024-02-28T00:15:00;0.63;;;0.25;;
82797;SDS011;72540;62.834;27.606;2024-02-28T00:17:26;0.40;;;0.10;;
82797;SDS011;72540;62.834;27.606;2024-02-28T00:19:51;0.50;;;0.30;;
82797;SDS011;72540;62.834;27.606;2024-02-28T00:22:17;0.60;;;0.30;;
82797;SDS011;72540;62.834;27.606;2024-02-28T00:24:43;0.70;;;0.30;;
82797;SDS011;72540;62.834;27.606;2024-02-28T00:27:08;0.88;;;0.30;;
82797;SDS011;72540;62.834;27.606;2024-02-28T00:29:34;0.25;;;0.20;;
82797;SDS011;72540;62.834;27.606;2024-02-28T00:32:00;2.05;;;0.30;;
82797;SDS011;72540;62.834;27.606;2024-02-28T00:34:25;0.22;;;0.20;;
82797;SDS011;72540;62.834;27.606;2024-02-28T00:36:51;1.30;;;0.30;;
82797;SDS011;72540;62.834;27.606;2024-02-28T00:39:17;2.20;;;0.60;;
82797;SDS011;72540;62.834;27.606;2024-02-28T00:41:43;0.75;;;0.32;;
82797;SDS011;72540;62.834;27.606;2024-02-28T00:44:08;0.90;;;0.38;;
82797;SDS011;72540;62.834;27.606;2024-02-28T00:46:34;0.95;;;0.30;;
82797;SDS011;72540;62.834;27.606;2024-02-28T00:49:00;0.65;;;0.30;;
82797;SDS011;72540;62.834;27.606;2024-02-28T00:51:26;0.70;;;0.28;;
82797;SDS011;72540;62.834;27.606;2024-02-28T00:53:51;0.45;;;0.13;;
82797;SDS011;72540;62.834;27.606;2024-02-28T00:56:17;0.90;;;0.30;;
82797;SDS011;72540;62.834;27.606;2024-02-28T00:58:45;0.40;;;0.10;;
82797;SDS011;72540;62.834;27.606;2024-02-28T01:01:11;1.10;;;0.30;;
82797;SDS011;72540;62.834;27.606;2024-02-28T01:03:37;0.05;;;0.00;;
82797;SDS011;72540;62.834;27.606;2024-02-28T01:06:02;0.40;;;0.20;;
82797;SDS011;72540;62.834;27.606;2024-02-28T01:08:29;0.40;;;0.20;;
82797;SDS011;72540;62.834;27.606;2024-02-28T01:10:55;1.10;;;0.30;;
82797;SDS011;72540;62.834;27.606;2024-02-28T01:13:20;0.20;;;0.10;;
82797;SDS011;72540;62.834;27.606;2024-02-28T01:15:46;0.30;;;0.05;;
82797;SDS011;72540;62.834;27.606;2024-02-28T01:18:12;0.80;;;0.30;;
82797;SDS011;72540;62.834;27.606;2024-02-28T01:20:38;0.15;;;0.10;;
82797;SDS011;72540;62.834;27.606;2024-02-28T01:23:04;1.23;;;0.45;;
82797;SDS011;72540;62.834;27.606;2024-02-28T01:25:30;0.55;;;0.20;;
82797;SDS011;72540;62.834;27.606;2024-02-28T01:27:56;0.63;;;0.20;;
82797;SDS011;72540;62.834;27.606;2024-02-28T01:30:23;0.73;;;0.20;;
82797;SDS011;72540;62.834;27.606;2024-02-28T01:32:49;1.08;;;0.35;;
82797;SDS011;72540;62.834;27.606;2024-02-28T01:35:14;0.52;;;0.30;;
82797;SDS011;72540;62.834;27.606;2024-02-28T01:37:40;0.75;;;0.20;;
82797;SDS011;72540;62.834;27.606;2024-02-28T01:40:06;0.20;;;0.20;;
82797;SDS011;72540;62.834;27.606;2024-02-28T01:42:32;0.20;;;0.13;;
82797;SDS011;72540;62.834;27.606;2024-02-28T01:44:58;0.60;;;0.10;;
82797;SDS011;72540;62.834;27.606;2024-02-28T01:47:23;0.57;;;0.30;;
82797;SDS011;72540;62.834;27.606;2024-02-28T01:49:49;0.00;;;0.00;;
82797;SDS011;72540;62.834;27.606;2024-02-28T01:52:16;0.13;;;0.10;;
82797;SDS011;72540;62.834;27.606;2024-02-28T01:54:42;0.50;;;0.20;;
82797;SDS011;72540;62.834;27.606;2024-02-28T01:57:08;0.65;;;0.22;;
82797;SDS011;72540;62.834;27.606;2024-02-28T01:59:34;0.28;;;0.17;;
82797;SDS011;72540;62.834;27.606;2024-02-28T02:02:00;1.13;;;0.30;;
82797;SDS011;72540;62.834;27.606;2024-02-28T02:04:25;1.60;;;0.40;;
82797;SDS011;72540;62.834;27.606;2024-02-28T02:06:51;0.43;;;0.20;;
82797;SDS011;72540;62.834;27.606;2024-02-28T02:09:19;0.75;;;0.32;;
82797;SDS011;72540;62.834;27.606;2024-02-28T02:11:45;0.70;;;0.40;;
82797;SDS011;72540;62.834;27.606;2024-02-28T02:14:10;1.23;;;0.60;;
82797;SDS011;72540;62.834;27.606;2024-02-28T02:16:36;0.63;;;0.30;;
82797;SDS011;72540;62.834;27.606;2024-02-28T02:19:02;1.85;;;0.47;;
82797;SDS011;72540;62.834;27.606;2024-02-28T02:21:34;1.45;;;0.40;;
82797;SDS011;72540;62.834;27.606;2024-02-28T02:24:00;1.88;;;0.60;;
82797;SDS011;72540;62.834;27.606;2024-02-28T02:26:26;2.42;;;0.70;;
82797;SDS011;72540;62.834;27.606;2024-02-28T02:28:51;2.30;;;0.57;;
82797;SDS011;72540;62.834;27.606;2024-02-28T02:31:17;2.03;;;0.65;;
82797;SDS011;72540;62.834;27.606;2024-02-28T02:33:42;1.35;;;0.45;;
82797;SDS011;72540;62.834;27.606;2024-02-28T02:36:08;0.55;;;0.20;;
82797;SDS011;72540;62.834;27.606;2024-02-28T02:38:34;2.15;;;0.40;;
82797;SDS011;72540;62.834;27.606;2024-02-28T02:40:59;2.20;;;0.55;;
82797;SDS011;72540;62.834;27.606;2024-02-28T02:43:25;2.63;;;0.70;;
82797;SDS011;72540;62.834;27.606;2024-02-28T02:45:50;1.27;;;0.43;;
82797;SDS011;72540;62.834;27.606;2024-02-28T02:48:16;1.65;;;0.45;;
82797;SDS011;72540;62.834;27.606;2024-02-28T02:50:41;0.95;;;0.40;;
82797;SDS011;72540;62.834;27.606;2024-02-28T02:53:09;1.17;;;0.50;;
82797;SDS011;72540;62.834;27.606;2024-02-28T02:55:35;1.35;;;0.40;;
82797;SDS011;72540;62.834;27.606;2024-02-28T02:58:01;1.40;;;0.47;;
82797;SDS011;72540;62.834;27.606;2024-02-28T03:00:27;0.65;;;0.30;;
82797;SDS011;72540;62.834;27.606;2024-02-28T03:02:53;0.85;;;0.40;;
82797;SDS011;72540;62.834;27.606;2024-02-28T03:05:19;1.27;;;0.45;;
82797;SDS011;72540;62.834;27.606;2024-02-28T03:07:45;1.65;;;0.45;;
82797;SDS011;72540;62.834;27.606;2024-02-28T03:10:11;1.92;;;0.60;;
82797;SDS011;72540;62.834;27.606;2024-02-28T03:12:36;1.45;;;0.45;;
82797;SDS011;72540;62.834;27.606;2024-02-28T03:15:02;1.83;;;0.52;;
82797;SDS011;72540;62.834;27.606;2024-02-28T03:17:28;1.35;;;0.57;;
82797;SDS011;72540;62.834;27.606;2024-02-28T03:19:54;2.38;;;0.75;;
82797;SDS011;72540;62.834;27.606;2024-02-28T03:22:20;1.27;;;0.40;;
82797;SDS011;72540;62.834;27.606;2024-02-28T03:24:46;1.08;;;0.47;;
82797;SDS011;72540;62.834;27.606;2024-02-28T03:27:11;1.88;;;0.43;;
82797;SDS011;72540;62.834;27.606;2024-02-28T03:29:37;1.23;;;0.47;;
82797;SDS011;72540;62.834;27.606;2024-02-28T03:32:03;1.33;;;0.30;;
82797;SDS011;72540;62.834;27.606;2024-02-28T03:34:29;2.08;;;0.60;;
82797;SDS011;72540;62.834;27.606;2024-02-28T03:36:55;0.77;;;0.35;;
82797;SDS011;72540;62.834;27.606;2024-02-28T03:39:20;0.60;;;0.28;;
82797;SDS011;72540;62.834;27.606;2024-02-28T03:41:46;2.17;;;0.60;;
82797;SDS011;72540;62.834;27.606;2024-02-28T03:44:12;1.95;;;0.40;;
82797;SDS011;72540;62.834;27.606;2024-02-28T03:46:37;1.80;;;0.50;;
82797;SDS011;72540;62.834;27.606;2024-02-28T03:49:03;0.60;;;0.35;;
82797;SDS011;72540;62.834;27.606;2024-02-28T03:51:29;2.05;;;0.60;;
82797;SDS011;72540;62.834;27.606;2024-02-28T03:53:55;0.85;;;0.30;;
82797;SDS011;72540;62.834;27.606;2024-02-28T03:56:24;1.23;;;0.35;;
82797;SDS011;72540;62.834;27.606;2024-02-28T03:58:50;1.73;;;0.70;;
82797;SDS011;72540;62.834;27.606;2024-02-28T04:01:17;1.60;;;0.45;;
82797;SDS011;72540;62.834;27.606;2024-02-28T04:03:42;1.35;;;0.40;;
82797;SDS011;72540;62.834;27.606;2024-02-28T04:06:08;1.75;;;0.60;;
82797;SDS011;72540;62.834;27.606;2024-02-28T04:08:34;1.25;;;0.38;;
82797;SDS011;72540;62.834;27.606;2024-02-28T04:11:00;1.20;;;0.45;;
82797;SDS011;72540;62.834;27.606;2024-02-28T04:13:25;1.08;;;0.40;;
82797;SDS011;72540;62.834;27.606;2024-02-28T04:15:51;1.15;;;0.47;;
82797;SDS011;72540;62.834;27.606;2024-02-28T04:18:17;1.52;;;0.38;;
82797;SDS011;72540;62.834;27.606;2024-02-28T04:20:42;1.17;;;0.38;;
82797;SDS011;72540;62.834;27.606;2024-02-28T04:23:08;1.42;;;0.38;;
82797;SDS011;72540;62.834;27.606;2024-02-28T04:25:34;1.70;;;0.50;;
82797;SDS011;72540;62.834;27.606;2024-02-28T04:28:01;2.25;;;0.60;;
82797;SDS011;72540;62.834;27.606;2024-02-28T04:30:27;2.80;;;0.80;;
82797;SDS011;72540;62.834;27.606;2024-02-28T04:32:53;0.22;;;0.20;;
82797;SDS011;72540;62.834;27.606;2024-02-28T04:35:19;0.80;;;0.38;;
82797;SDS011;72540;62.834;27.606;2024-02-28T04:37:45;1.13;;;0.40;;
82797;SDS011;72540;62.834;27.606;2024-02-28T04:40:11;0.55;;;0.38;;
82797;SDS011;72540;62.834;27.606;2024-02-28T04:42:37;2.03;;;0.60;;
82797;SDS011;72540;62.834;27.606;2024-02-28T04:45:03;1.85;;;0.60;;
82797;SDS011;72540;62.834;27.606;2024-02-28T04:47:29;2.25;;;0.50;;
82797;SDS011;72540;62.834;27.606;2024-02-28T04:49:56;1.80;;;0.50;;
82797;SDS011;72540;62.834;27.606;2024-02-28T04:52:21;1.75;;;0.50;;
82797;SDS011;72540;62.834;27.606;2024-02-28T04:54:47;1.88;;;0.52;;
82797;SDS011;72540;62.834;27.606;2024-02-28T04:57:13;0.70;;;0.17;;
82797;SDS011;72540;62.834;27.606;2024-02-28T04:59:39;1.55;;;0.50;;
82797;SDS011;72540;62.834;27.606;2024-02-28T05:02:04;1.80;;;0.60;;
82797;SDS011;72540;62.834;27.606;2024-02-28T05:04:30;1.38;;;0.50;;
82797;SDS011;72540;62.834;27.606;2024-02-28T05:06:56;0.90;;;0.30;;
82797;SDS011;72540;62.834;27.606;2024-02-28T05:09:21;1.85;;;0.50;;
82797;SDS011;72540;62.834;27.606;2024-02-28T05:11:47;0.60;;;0.30;;
82797;SDS011;72540;62.834;27.606;2024-02-28T05:14:13;1.83;;;0.50;;
82797;SDS011;72540;62.834;27.606;2024-02-28T05:16:38;0.35;;;0.28;;
82797;SDS011;72540;62.834;27.606;2024-02-28T05:19:04;2.08;;;0.60;;
82797;SDS011;72540;62.834;27.606;2024-02-28T05:21:29;1.33;;;0.60;;
82797;SDS011;72540;62.834;27.606;2024-02-28T05:23:55;1.88;;;0.57;;
82797;SDS011;72540;62.834;27.606;2024-02-28T05:26:21;2.58;;;0.82;;
82797;SDS011;72540;62.834;27.606;2024-02-28T05:28:46;1.50;;;0.55;;
82797;SDS011;72540;62.834;27.606;2024-02-28T05:33:47;1.80;;;0.55;;
82797;SDS011;72540;62.834;27.606;2024-02-28T05:36:13;1.88;;;0.77;;
82797;SDS011;72540;62.834;27.606;2024-02-28T05:38:39;2.33;;;0.52;;
82797;SDS011;72540;62.834;27.606;2024-02-28T05:41:05;3.03;;;0.82;;
82797;SDS011;72540;62.834;27.606;2024-02-28T05:43:30;1.02;;;0.38;;
82797;SDS011;72540;62.834;27.606;2024-02-28T05:45:56;1.65;;;0.40;;
82797;SDS011;72540;62.834;27.606;2024-02-28T05:48:21;2.17;;;0.57;;
82797;SDS011;72540;62.834;27.606;2024-02-28T05:50:47;2.38;;;0.68;;
82797;SDS011;72540;62.834;27.606;2024-02-28T05:53:13;1.95;;;0.57;;
82797;SDS011;72540;62.834;27.606;2024-02-28T05:55:39;1.88;;;0.60;;
82797;SDS011;72540;62.834;27.606;2024-02-28T05:58:04;2.55;;;0.80;;
82797;SDS011;72540;62.834;27.606;2024-02-28T06:00:30;2.50;;;0.40;;
82797;SDS011;72540;62.834;27.606;2024-02-28T06:02:56;1.73;;;0.40;;
82797;SDS011;72540;62.834;27.606;2024-02-28T06:05:21;1.65;;;0.60;;
82797;SDS011;72540;62.834;27.606;2024-02-28T06:07:47;1.15;;;0.30;;
82797;SDS011;72540;62.834;27.606;2024-02-28T06:10:13;1.58;;;0.50;;
82797;SDS011;72540;62.834;27.606;2024-02-28T06:12:39;1.05;;;0.40;;
82797;SDS011;72540;62.834;27.606;2024-02-28T06:15:05;4.90;;;0.70;;
82797;SDS011;72540;62.834;27.606;2024-02-28T06:17:31;1.25;;;0.32;;
82797;SDS011;72540;62.834;27.606;2024-02-28T06:19:56;3.00;;;0.60;;
82797;SDS011;72540;62.834;27.606;2024-02-28T06:22:22;1.67;;;0.63;;
82797;SDS011;72540;62.834;27.606;2024-02-28T06:24:47;1.70;;;0.50;;
82797;SDS011;72540;62.834;27.606;2024-02-28T06:27:13;1.00;;;0.38;;
82797;SDS011;72540;62.834;27.606;2024-02-28T06:29:42;1.85;;;0.57;;
82797;SDS011;72540;62.834;27.606;2024-02-28T06:32:09;1.70;;;0.50;;
82797;SDS011;72540;62.834;27.606;2024-02-28T06:34:34;1.20;;;0.40;;
82797;SDS011;72540;62.834;27.606;2024-02-28T06:37:00;1.05;;;0.32;;
82797;SDS011;72540;62.834;27.606;2024-02-28T06:39:25;1.60;;;0.40;;
82797;SDS011;72540;62.834;27.606;2024-02-28T06:41:51;1.33;;;0.47;;
82797;SDS011;72540;62.834;27.606;2024-02-28T06:44:20;1.65;;;0.60;;
82797;SDS011;72540;62.834;27.606;2024-02-28T06:46:45;0.70;;;0.28;;
82797;SDS011;72540;62.834;27.606;2024-02-28T06:49:11;0.57;;;0.30;;
82797;SDS011;72540;62.834;27.606;2024-02-28T06:51:36;1.20;;;0.43;;
82797;SDS011;72540;62.834;27.606;2024-02-28T06:54:02;1.23;;;0.50;;
82797;SDS011;72540;62.834;27.606;2024-02-28T06:56:28;4.00;;;0.60;;
82797;SDS011;72540;62.834;27.606;2024-02-28T06:58:55;1.23;;;0.43;;
82797;SDS011;72540;62.834;27.606;2024-02-28T07:01:21;1.52;;;0.50;;
82797;SDS011;72540;62.834;27.606;2024-02-28T07:03:46;1.20;;;0.43;;
82797;SDS011;72540;62.834;27.606;2024-02-28T07:06:12;1.23;;;0.43;;
82797;SDS011;72540;62.834;27.606;2024-02-28T07:08:38;1.88;;;0.57;;
82797;SDS011;72540;62.834;27.606;2024-02-28T07:11:03;2.00;;;0.55;;
82797;SDS011;72540;62.834;27.606;2024-02-28T07:13:29;1.98;;;0.70;;
82797;SDS011;72540;62.834;27.606;2024-02-28T07:15:55;1.80;;;0.70;;
82797;SDS011;72540;62.834;27.606;2024-02-28T07:18:23;2.03;;;0.70;;
82797;SDS011;72540;62.834;27.606;2024-02-28T07:20:51;3.10;;;0.88;;
82797;SDS011;72540;62.834;27.606;2024-02-28T07:23:17;1.88;;;0.63;;
82797;SDS011;72540;62.834;27.606;2024-02-28T07:25:43;0.77;;;0.30;;
82797;SDS011;72540;62.834;27.606;2024-02-28T07:28:08;1.98;;;0.70;;
82797;SDS011;72540;62.834;27.606;2024-02-28T07:30:34;2.95;;;0.80;;
82797;SDS011;72540;62.834;27.606;2024-02-28T07:33:00;2.40;;;0.73;;
82797;SDS011;72540;62.834;27.606;2024-02-28T07:35:26;1.40;;;0.60;;
82797;SDS011;72540;62.834;27.606;2024-02-28T07:37:51;2.63;;;0.80;;
82797;SDS011;72540;62.834;27.606;2024-02-28T07:40:17;4.55;;;0.60;;
82797;SDS011;72540;62.834;27.606;2024-02-28T07:42:43;3.80;;;1.02;;
82797;SDS011;72540;62.834;27.606;2024-02-28T07:45:09;2.83;;;0.80;;
82797;SDS011;72540;62.834;27.606;2024-02-28T07:47:35;1.45;;;0.52;;
82797;SDS011;72540;62.834;27.606;2024-02-28T07:50:02;2.58;;;0.75;;
82797;SDS011;72540;62.834;27.606;2024-02-28T07:52:28;2.22;;;0.60;;
82797;SDS011;72540;62.834;27.606;2024-02-28T07:54:53;1.42;;;0.40;;
82797;SDS011;72540;62.834;27.606;2024-02-28T07:57:19;1.23;;;0.65;;
82797;SDS011;72540;62.834;27.606;2024-02-28T07:59:44;1.88;;;0.57;;
82797;SDS011;72540;62.834;27.606;2024-02-28T08:02:10;1.77;;;0.52;;
82797;SDS011;72540;62.834;27.606;2024-02-28T08:04:39;2.08;;;0.60;;
82797;SDS011;72540;62.834;27.606;2024-02-28T08:07:05;1.27;;;0.50;;
82797;SDS011;72540;62.834;27.606;2024-02-28T08:09:30;2.65;;;0.60;;
82797;SDS011;72540;62.834;27.606;2024-02-28T08:11:56;2.88;;;0.80;;
82797;SDS011;72540;62.834;27.606;2024-02-28T08:14:23;2.50;;;0.80;;
82797;SDS011;72540;62.834;27.606;2024-02-28T08:16:49;1.67;;;0.70;;
82797;SDS011;72540;62.834;27.606;2024-02-28T08:19:14;2.08;;;0.70;;
82797;SDS011;72540;62.834;27.606;2024-02-28T08:21:40;2.67;;;0.80;;
82797;SDS011;72540;62.834;27.606;2024-02-28T08:24:06;3.03;;;0.82;;
82797;SDS011;72540;62.834;27.606;2024-02-28T08:26:32;3.35;;;0.90;;
82797;SDS011;72540;62.834;27.606;2024-02-28T08:28:57;2.85;;;0.98;;
82797;SDS011;72540;62.834;27.606;2024-02-28T08:31:23;2.13;;;0.65;;
82797;SDS011;72540;62.834;27.606;2024-02-28T08:33:48;2.22;;;0.70;;
82797;SDS011;72540;62.834;27.606;2024-02-28T08:36:14;4.03;;;0.90;;
82797;SDS011;72540;62.834;27.606;2024-02-28T08:38:40;3.20;;;1.13;;
82797;SDS011;72540;62.834;27.606;2024-02-28T08:41:06;3.38;;;0.95;;
82797;SDS011;72540;62.834;27.606;2024-02-28T08:43:33;2.95;;;1.00;;
82797;SDS011;72540;62.834;27.606;2024-02-28T08:46:02;2.63;;;0.95;;
82797;SDS011;72540;62.834;27.606;2024-02-28T08:48:28;2.17;;;0.77;;
82797;SDS011;72540;62.834;27.606;2024-02-28T08:50:54;3.20;;;1.00;;
82797;SDS011;72540;62.834;27.606;2024-02-28T08:53:20;4.13;;;1.30;;
82797;SDS011;72540;62.834;27.606;2024-02-28T08:55:45;3.00;;;0.90;;
82797;SDS011;72540;62.834;27.606;2024-02-28T08:58:11;3.28;;;1.13;;
82797;SDS011;72540;62.834;27.606;2024-02-28T09:00:37;3.03;;;0.90;;
82797;SDS011;72540;62.834;27.606;2024-02-28T09:03:03;2.97;;;0.93;;
82797;SDS011;72540;62.834;27.606;2024-02-28T09:05:29;3.08;;;1.00;;
82797;SDS011;72540;62.834;27.606;2024-02-28T09:07:55;2.75;;;0.90;;
82797;SDS011;72540;62.834;27.606;2024-02-28T09:10:22;2.13;;;0.60;;
82797;SDS011;72540;62.834;27.606;2024-02-28T09:12:49;2.85;;;0.90;;
82797;SDS011;72540;62.834;27.606;2024-02-28T09:15:15;1.83;;;0.70;;
82797;SDS011;72540;62.834;27.606;2024-02-28T09:17:40;2.55;;;0.77;;
82797;SDS011;72540;62.834;27.606;2024-02-28T09:20:06;2.45;;;0.57;;
82797;SDS011;72540;62.834;27.606;2024-02-28T09:22:33;3.47;;;0.93;;
82797;SDS011;72540;62.834;27.606;2024-02-28T09:25:00;4.00;;;0.75;;
82797;SDS011;72540;62.834;27.606;2024-02-28T09:27:29;2.88;;;0.77;;
82797;SDS011;72540;62.834;27.606;2024-02-28T09:29:54;1.50;;;0.50;;
82797;SDS011;72540;62.834;27.606;2024-02-28T09:32:20;2.10;;;0.73;;
82797;SDS011;72540;62.834;27.606;2024-02-28T09:34:45;2.50;;;0.70;;
82797;SDS011;72540;62.834;27.606;2024-02-28T09:37:11;5.00;;;1.00;;
82797;SDS011;72540;62.834;27.606;2024-02-28T09:39:40;2.42;;;0.75;;
82797;SDS011;72540;62.834;27.606;2024-02-28T09:42:06;2.50;;;0.85;;
82797;SDS011;72540;62.834;27.606;2024-02-28T09:44:33;3.22;;;0.80;;
82797;SDS011;72540;62.834;27.606;2024-02-28T09:47:00;2.60;;;0.80;;
82797;SDS011;72540;62.834;27.606;2024-02-28T09:49:26;4.15;;;1.25;;
82797;SDS011;72540;62.834;27.606;2024-02-28T09:51:52;2.42;;;0.90;;
82797;SDS011;72540;62.834;27.606;2024-02-28T09:54:18;2.88;;;1.08;;
82797;SDS011;72540;62.834;27.606;2024-02-28T09:56:44;14.05;;;5.32;;
82797;SDS011;72540;62.834;27.606;2024-02-28T09:59:10;11.05;;;3.60;;
82797;SDS011;72540;62.834;27.606;2024-02-28T10:01:41;28.25;;;6.43;;
82797;SDS011;72540;62.834;27.606;2024-02-28T10:04:09;14.18;;;3.13;;
82797;SDS011;72540;62.834;27.606;2024-02-28T10:06:36;4.53;;;1.08;;
82797;SDS011;72540;62.834;27.606;2024-02-28T10:09:01;3.08;;;1.02;;
82797;SDS011;72540;62.834;27.606;2024-02-28T10:11:27;5.97;;;1.85;;
82797;SDS011;72540;62.834;27.606;2024-02-28T10:13:53;9.68;;;3.95;;
82797;SDS011;72540;62.834;27.606;2024-02-28T10:16:20;28.65;;;13.73;;
82797;SDS011;72540;62.834;27.606;2024-02-28T10:18:46;12.13;;;6.40;;
82797;SDS011;72540;62.834;27.606;2024-02-28T10:21:12;8.75;;;3.75;;
82797;SDS011;72540;62.834;27.606;2024-02-28T10:23:39;5.13;;;1.83;;
82797;SDS011;72540;62.834;27.606;2024-02-28T10:26:04;3.65;;;1.20;;
82797;SDS011;72540;62.834;27.606;2024-02-28T10:28:30;2.00;;;0.75;;
82797;SDS011;72540;62.834;27.606;2024-02-28T10:30:56;2.63;;;0.73;;
82797;SDS011;72540;62.834;27.606;2024-02-28T10:33:25;2.60;;;0.98;;
82797;SDS011;72540;62.834;27.606;2024-02-28T10:35:54;3.72;;;1.27;;
82797;SDS011;72540;62.834;27.606;2024-02-28T10:38:20;3.50;;;1.05;;
82797;SDS011;72540;62.834;27.606;2024-02-28T10:40:46;3.38;;;1.00;;
82797;SDS011;72540;62.834;27.606;2024-02-28T10:43:12;1.92;;;0.80;;
82797;SDS011;72540;62.834;27.606;2024-02-28T10:45:42;2.45;;;0.95;;
82797;SDS011;72540;62.834;27.606;2024-02-28T10:48:08;3.05;;;1.10;;
82797;SDS011;72540;62.834;27.606;2024-02-28T10:50:33;3.00;;;0.70;;
82797;SDS011;72540;62.834;27.606;2024-02-28T10:53:02;1.50;;;0.70;;
82797;SDS011;72540;62.834;27.606;2024-02-28T10:55:37;2.50;;;0.90;;
82797;SDS011;72540;62.834;27.606;2024-02-28T10:58:08;2.17;;;0.75;;
82797;SDS011;72540;62.834;27.606;2024-02-28T11:00:38;3.47;;;0.88;;
82797;SDS011;72540;62.834;27.606;2024-02-28T11:03:06;2.42;;;0.70;;
82797;SDS011;72540;62.834;27.606;2024-02-28T11:05:36;3.95;;;1.02;;
82797;SDS011;72540;62.834;27.606;2024-02-28T11:10:43;2.63;;;0.68;;
82797;SDS011;72540;62.834;27.606;2024-02-28T11:13:20;3.03;;;0.73;;
82797;SDS011;72540;62.834;27.606;2024-02-28T11:15:47;2.88;;;0.75;;
82797;SDS011;72540;62.834;27.606;2024-02-28T11:18:12;1.98;;;0.77;;
82797;SDS011;72540;62.834;27.606;2024-02-28T11:20:38;2.35;;;0.70;;
82797;SDS011;72540;62.834;27.606;2024-02-28T11:23:05;2.83;;;0.90;;
82797;SDS011;72540;62.834;27.606;2024-02-28T11:25:31;3.13;;;0.88;;
82797;SDS011;72540;62.834;27.606;2024-02-28T11:27:57;1.60;;;0.50;;
82797;SDS011;72540;62.834;27.606;2024-02-28T11:30:24;2.63;;;0.80;;
82797;SDS011;72540;62.834;27.606;2024-02-28T11:32:53;2.10;;;0.68;;
82797;SDS011;72540;62.834;27.606;2024-02-28T11:35:19;1.05;;;0.45;;
82797;SDS011;72540;62.834;27.606;2024-02-28T11:37:46;1.55;;;0.55;;
82797;SDS011;72540;62.834;27.606;2024-02-28T11:40:12;2.83;;;0.85;;
82797;SDS011;72540;62.834;27.606;2024-02-28T11:42:38;2.53;;;0.65;;
82797;SDS011;72540;62.834;27.606;2024-02-28T11:45:10;2.33;;;0.63;;
82797;SDS011;72540;62.834;27.606;2024-02-28T11:47:36;2.28;;;0.60;;
82797;SDS011;72540;62.834;27.606;2024-02-28T11:50:02;2.10;;;0.80;;
82797;SDS011;72540;62.834;27.606;2024-02-28T11:52:31;2.90;;;0.57;;
82797;SDS011;72540;62.834;27.606;2024-02-28T11:54:57;1.10;;;0.40;;
82797;SDS011;72540;62.834;27.606;2024-02-28T11:57:23;1.20;;;0.50;;
82797;SDS011;72540;62.834;27.606;2024-02-28T11:59:48;1.40;;;0.47;;
82797;SDS011;72540;62.834;27.606;2024-02-28T12:02:15;2.35;;;0.50;;
82797;SDS011;72540;62.834;27.606;2024-02-28T12:04:46;2.55;;;0.80;;
82797;SDS011;72540;62.834;27.606;2024-02-28T12:07:15;3.00;;;0.52;;
82797;SDS011;72540;62.834;27.606;2024-02-28T12:09:40;1.75;;;0.70;;
82797;SDS011;72540;62.834;27.606;2024-02-28T12:12:06;5.05;;;0.82;;
82797;SDS011;72540;62.834;27.606;2024-02-28T12:14:32;2.72;;;0.90;;
82797;SDS011;72540;62.834;27.606;2024-02-28T12:17:01;1.10;;;0.50;;
82797;SDS011;72540;62.834;27.606;2024-02-28T12:19:27;2.58;;;0.85;;
82797;SDS011;72540;62.834;27.606;2024-02-28T12:21:53;1.70;;;0.70;;
82797;SDS011;72540;62.834;27.606;2024-02-28T12:24:20;3.38;;;0.80;;
82797;SDS011;72540;62.834;27.606;2024-02-28T12:26:46;3.40;;;0.98;;
82797;SDS011;72540;62.834;27.606;2024-02-28T12:29:11;2.85;;;0.93;;
82797;SDS011;72540;62.834;27.606;2024-02-28T12:31:37;2.40;;;0.73;;
82797;SDS011;72540;62.834;27.606;2024-02-28T12:34:03;3.10;;;0.73;;
82797;SDS011;72540;62.834;27.606;2024-02-28T12:36:29;4.38;;;1.10;;
82797;SDS011;72540;62.834;27.606;2024-02-28T12:38:56;3.38;;;0.98;;
82797;SDS011;72540;62.834;27.606;2024-02-28T12:41:22;3.67;;;1.35;;
82797;SDS011;72540;62.834;27.606;2024-02-28T12:43:48;3.53;;;1.05;;
82797;SDS011;72540;62.834;27.606;2024-02-28T12:46:15;2.95;;;0.98;;
82797;SDS011;72540;62.834;27.606;2024-02-28T12:48:40;3.05;;;0.95;;
82797;SDS011;72540;62.834;27.606;2024-02-28T12:51:06;3.40;;;1.02;;
82797;SDS011;72540;62.834;27.606;2024-02-28T12:53:34;3.33;;;1.10;;
82797;SDS011;72540;62.834;27.606;2024-02-28T12:55:59;3.95;;;1.27;;
82797;SDS011;72540;62.834;27.606;2024-02-28T12:58:25;3.15;;;0.95;;
82797;SDS011;72540;62.834;27.606;2024-02-28T13:00:51;3.60;;;1.30;;
82797;SDS011;72540;62.834;27.606;2024-02-28T13:03:17;4.72;;;1.10;;
82797;SDS011;72540;62.834;27.606;2024-02-28T13:05:43;3.42;;;1.10;;
82797;SDS011;72540;62.834;27.606;2024-02-28T13:08:09;2.92;;;0.93;;
82797;SDS011;72540;62.834;27.606;2024-02-28T13:10:35;8.00;;;2.05;;
82797;SDS011;72540;62.834;27.606;2024-02-28T13:13:04;5.22;;;1.48;;
82797;SDS011;72540;62.834;27.606;2024-02-28T13:15:31;4.97;;;1.55;;
82797;SDS011;72540;62.834;27.606;2024-02-28T13:17:57;7.05;;;2.33;;
82797;SDS011;72540;62.834;27.606;2024-02-28T13:20:22;8.18;;;2.78;;
82797;SDS011;72540;62.834;27.606;2024-02-28T13:22:48;4.25;;;1.50;;
82797;SDS011;72540;62.834;27.606;2024-02-28T13:25:13;3.75;;;1.15;;
82797;SDS011;72540;62.834;27.606;2024-02-28T13:27:40;4.88;;;1.30;;
82797;SDS011;72540;62.834;27.606;2024-02-28T13:30:06;3.97;;;0.95;;
82797;SDS011;72540;62.834;27.606;2024-02-28T13:32:32;2.78;;;0.93;;
82797;SDS011;72540;62.834;27.606;2024-02-28T13:34:58;4.43;;;1.23;;
82797;SDS011;72540;62.834;27.606;2024-02-28T13:37:24;3.38;;;1.25;;
82797;SDS011;72540;62.834;27.606;2024-02-28T13:39:50;4.53;;;1.27;;
82797;SDS011;72540;62.834;27.606;2024-02-28T13:42:17;6.57;;;1.55;;
82797;SDS011;72540;62.834;27.606;2024-02-28T13:44:45;6.45;;;1.70;;
82797;SDS011;72540;62.834;27.606;2024-02-28T13:47:11;4.05;;;1.40;;
82797;SDS011;72540;62.834;27.606;2024-02-28T13:49:39;5.03;;;1.30;;
82797;SDS011;72540;62.834;27.606;2024-02-28T13:52:04;5.90;;;1.98;;
82797;SDS011;72540;62.834;27.606;2024-02-28T13:54:30;5.10;;;1.55;;
82797;SDS011;72540;62.834;27.606;2024-02-28T13:56:56;6.20;;;1.98;;
82797;SDS011;72540;62.834;27.606;2024-02-28T13:59:23;5.75;;;1.50;;
82797;SDS011;72540;62.834;27.606;2024-02-28T14:01:49;3.50;;;1.10;;
82797;SDS011;72540;62.834;27.606;2024-02-28T14:04:15;5.53;;;1.55;;
82797;SDS011;72540;62.834;27.606;2024-02-28T14:06:40;5.22;;;1.20;;
82797;SDS011;72540;62.834;27.606;2024-02-28T14:09:06;2.60;;;0.88;;
82797;SDS011;72540;62.834;27.606;2024-02-28T14:11:31;3.08;;;1.10;;
82797;SDS011;72540;62.834;27.606;2024-02-28T14:13:57;9.40;;;3.15;;
82797;SDS011;72540;62.834;27.606;2024-02-28T14:16:23;4.40;;;1.20;;
82797;SDS011;72540;62.834;27.606;2024-02-28T14:18:49;2.70;;;0.93;;
82797;SDS011;72540;62.834;27.606;2024-02-28T14:21:16;5.38;;;1.83;;
82797;SDS011;72540;62.834;27.606;2024-02-28T14:23:41;3.45;;;0.95;;
82797;SDS011;72540;62.834;27.606;2024-02-28T14:26:07;4.22;;;1.30;;
82797;SDS011;72540;62.834;27.606;2024-02-28T14:28:33;3.58;;;1.10;;
82797;SDS011;72540;62.834;27.606;2024-02-28T14:30:58;4.60;;;1.48;;